Otisville, MI (48463)

3:36 AM EST on March 04, 2015 (GMT -0500)
St. John Acres | Change Station
CLOSE
Current Station
Personal Weather Station
Location: Otisville, MI
Elevation: 796 ft
Nearby Weather Stations

Elev 796 ft 43.12 °N, 83.58 °W | Updated 5 minutes ago

Overcast
Overcast
27.0 °F
Feels Like 23 °F
N
3.8
Wind Variable Wind from South

Today
High -- | Low -- °F
--% Chance of Precip.
Yesterday
High -- | Low -- °F
Precip. -- in
7:05 AM 6:26 PM
Waxing Gibbous, 98% visible
Pressure 29.80 in
Visibility 10.0 miles
Clouds Scattered Clouds 2400 ft
Windchill 23 °F
Dew Point 20 °F
Humidity 75%
Rainfall 0.00 in
Snow Depth Not available.
UV 0 out of 12
Pollen .50 out of 12
Air Quality Not available.
Flu Activity Not available.
METAR KD95 040813Z AUTO 26006KT 10SM SCT024 M03/M06 A2980 RMK AO2 T10261065

More Conditions Fewer Conditions

Pressure 29.80 in
Visibility 10.0 miles
Clouds Scattered Clouds 2400 ft
Windchill 23 °F
Dew Point 20 °F
Humidity 75%
Rainfall 0.00 in
Snow Depth Not available.
UV 0 out of 12
Pollen .50 out of 12
Air Quality Not available.
Flu Activity Not available.
METAR KD95 040813Z AUTO 26006KT 10SM SCT024 M03/M06 A2980 RMK AO2 T10261065

More Conditions Fewer Conditions

10-Day Weather Forecast

Almanac

Astronomy

Mar. 04, 2015 Rise Set
Actual Time
Civil Twilight
Nautical Twilight
Astronomical Twilight
Moon
Length of Visible Light
Length of Day
Tomorrow will be .
, % of the Moon is Illuminated

Today's Extremes

State Highs State Lows

Community

WunderPhotos

Upload Photos

1,802,416 photos uploaded!

WunderBlogs® & News

Nearby

Air Quality

  Air Quality AQ Index Pollutant
Not available.

Snow Depth

Station Depth Elevation

Earthquake Activity

City Distance Mag. Time & Date
Minimum magnitude displayed is 2.5.

Coastal Water Temperatures

Place Temperature

Nearby Weather Stations